Time;durP1;ratioP1;P1;durP2;ratioP2;P2;SDS_P1;SDS_P2;PMS_P1;PMS_P2;Temp;Humidity;BMP_temperature;BMP_pressure;BME280_temperature;BME280_humidity;BME280_pressure;Samples;Min_cycle;Max_cycle;Signal;HPM_P1;HPM_P2
2021/01/26 00:00:21;;;;;;;0.50;0.50;;;;;;;0.72;75.07;98606.78;4938962;29;20230;-80
2021/01/26 00:02:48;;;;;;;0.40;0.40;;;;;;;0.84;75.58;98626.41;4960770;23;20239;-79
2021/01/26 00:05:18;;;;;;;0.40;0.40;;;;;;;0.88;75.92;98632.19;4948546;28;20235;-80
2021/01/26 00:08:09;;;;;;;0.40;0.40;;;;;;;0.73;75.96;98619.00;4972918;28;20231;-80
2021/01/26 00:10:59;;;;;;;0.40;0.40;;;;;;;0.83;75.95;98638.00;4977865;23;20231;-80
2021/01/26 00:13:34;;;;;;;0.40;0.40;;;;;;;0.74;76.39;98633.81;4950677;23;20279;-80
2021/01/26 00:16:22;;;;;;;0.40;0.40;;;;;;;0.79;77.04;98638.53;4949440;23;20224;-80
2021/01/26 00:21:56;;;;;;;0.40;0.40;;;;;;;0.72;78.03;98648.97;4895184;29;20315;-80
2021/01/26 00:24:22;;;;;;;0.40;0.40;;;;;;;0.66;78.36;98647.06;4898697;29;20208;-80
2021/01/26 00:26:52;;;;;;;0.40;0.40;;;;;;;0.55;78.62;98639.59;4820224;29;20248;-80
2021/01/26 00:29:20;;;;;;;0.50;0.50;;;;;;;0.37;78.90;98618.03;4917085;23;20295;-80
2021/01/26 00:31:46;;;;;;;0.40;0.40;;;;;;;0.49;79.53;98642.94;4921056;29;20264;-80
2021/01/26 00:34:15;;;;;;;0.40;0.40;;;;;;;0.50;79.33;98639.31;4954936;28;20643;-80
2021/01/26 00:36:59;;;;;;;0.40;0.40;;;;;;;0.66;79.53;98668.16;4940701;23;20576;-80
2021/01/26 00:39:28;;;;;;;0.50;0.50;;;;;;;0.53;79.28;98638.97;4933053;29;20244;-79
2021/01/26 00:41:57;;;;;;;0.40;0.40;;;;;;;0.68;79.84;98667.97;4933745;29;20224;-79
2021/01/26 00:44:23;;;;;;;0.50;0.50;;;;;;;0.64;80.23;98664.06;4939619;23;20185;-80
2021/01/26 00:46:51;;;;;;;0.40;0.40;;;;;;;0.58;80.27;98668.22;4951655;29;20204;-80
2021/01/26 00:49:25;;;;;;;0.40;0.40;;;;;;;0.66;79.90;98670.78;4952825;29;20227;-80
2021/01/26 00:51:59;;;;;;;0.40;0.40;;;;;;;0.61;80.11;98661.75;5021350;23;20255;-80
2021/01/26 00:54:28;;;;;;;0.40;0.40;;;;;;;0.66;80.17;98672.59;4902847;29;20221;-80
2021/01/26 00:56:55;;;;;;;0.40;0.40;;;;;;;0.65;80.25;98673.63;4951485;23;21074;-80
2021/01/26 00:59:28;;;;;;;0.40;0.40;;;;;;;0.56;80.21;98675.47;4948256;29;20196;-80
2021/01/26 01:02:04;;;;;;;0.40;0.40;;;;;;;0.42;80.54;98657.84;4947660;29;20245;-80
2021/01/26 01:04:32;;;;;;;0.40;0.40;;;;;;;0.40;80.42;98663.28;4946034;28;20263;-80
2021/01/26 01:07:01;;;;;;;0.40;0.40;;;;;;;0.30;80.11;98654.00;4947843;28;20240;-80
2021/01/26 01:09:28;;;;;;;0.40;0.40;;;;;;;0.39;80.75;98680.09;4933764;29;20220;-80
2021/01/26 01:11:55;;;;;;;0.40;0.40;;;;;;;0.39;80.35;98687.19;4956508;23;20292;-80
2021/01/26 01:14:28;;;;;;;0.40;0.40;;;;;;;0.37;80.62;98697.09;4935922;28;20243;-80
2021/01/26 01:16:55;;;;;;;0.40;0.40;;;;;;;0.36;80.53;98696.28;4951589;29;20239;-80
2021/01/26 01:19:25;;;;;;;0.40;0.40;;;;;;;0.34;80.40;98694.78;4949242;28;20251;-80
2021/01/26 01:21:56;;;;;;;0.40;0.40;;;;;;;0.32;80.34;98697.63;4948343;29;20250;-80
2021/01/26 01:24:22;;;;;;;0.40;0.40;;;;;;;0.28;80.16;98688.41;4932454;29;20220;-80
2021/01/26 01:26:49;;;;;;;0.43;0.43;;;;;;;0.17;80.21;98669.59;4949574;29;20272;-80
2021/01/26 01:29:22;;;;;;;0.40;0.40;;;;;;;0.38;79.93;98709.25;4950311;29;20597;-80
2021/01/26 01:31:50;;;;;;;0.40;0.40;;;;;;;0.38;79.57;98707.44;4943267;23;20292;-80
2021/01/26 01:34:22;;;;;;;0.40;0.40;;;;;;;0.23;79.69;98697.88;4916077;29;20213;-80
2021/01/26 01:36:48;;;;;;;0.50;0.50;;;;;;;0.25;79.86;98711.66;4931540;29;20252;-80
2021/01/26 01:39:18;;;;;;;0.40;0.40;;;;;;;0.28;79.31;98706.06;4925367;23;20215;-80
2021/01/26 01:41:45;;;;;;;0.40;0.40;;;;;;;0.15;79.30;98706.63;4934724;29;20203;-80
2021/01/26 01:44:19;;;;;;;0.40;0.40;;;;;;;0.21;79.21;98718.28;4946494;23;20232;-81
2021/01/26 01:46:55;;;;;;;0.40;0.40;;;;;;;0.23;79.21;98724.22;4948799;23;20227;-80
2021/01/26 01:49:36;;;;;;;0.40;0.40;;;;;;;0.17;79.15;98728.34;4934979;29;20334;-80
2021/01/26 01:52:04;;;;;;;0.40;0.40;;;;;;;0.15;78.96;98727.69;4947096;28;20258;-79
2021/01/26 01:54:37;;;;;;;0.40;0.40;;;;;;;0.13;78.52;98706.00;4948076;29;20236;-80
2021/01/26 01:57:18;;;;;;;0.40;0.40;;;;;;;0.12;79.17;98724.59;4949037;28;20267;-80
2021/01/26 01:59:47;;;;;;;0.40;0.40;;;;;;;0.08;79.11;98726.78;4949836;28;20282;-80
2021/01/26 02:02:14;;;;;;;0.40;0.40;;;;;;;0.07;79.61;98725.13;4932587;29;20235;-80
2021/01/26 02:04:42;;;;;;;0.40;0.40;;;;;;;0.03;79.37;98726.47;4947276;29;20235;-80
2021/01/26 02:07:08;;;;;;;0.40;0.40;;;;;;;-0.03;79.28;98722.72;4943943;29;20291;-80
2021/01/26 02:09:37;;;;;;;0.40;0.40;;;;;;;-0.04;79.61;98714.97;4928964;29;20311;-80
2021/01/26 02:12:05;;;;;;;0.40;0.40;;;;;;;-0.04;79.32;98715.81;4929441;28;20227;-80
2021/01/26 02:14:33;;;;;;;0.30;0.30;;;;;;;0.02;79.63;98724.81;4929933;29;20240;-81
2021/01/26 02:17:32;;;;;;;0.40;0.40;;;;;;;-0.01;79.61;98726.00;4932892;29;20327;-80
2021/01/26 02:20:23;;;;;;;0.40;0.40;;;;;;;-0.04;79.20;98736.06;4934302;28;20216;-81
2021/01/26 02:23:08;;;;;;;0.40;0.40;;;;;;;-0.09;79.29;98741.00;4953462;28;20242;-80
2021/01/26 02:25:55;;;;;;;0.33;0.33;;;;;;;-0.13;79.43;98727.38;4955611;23;20287;-80
2021/01/26 02:28:37;;;;;;;0.40;0.40;;;;;;;-0.14;79.50;98728.38;4930049;23;20411;-80
2021/01/26 02:31:13;;;;;;;0.40;0.40;;;;;;;-0.16;79.66;98730.38;4924523;23;20237;-80
2021/01/26 02:34:03;;;;;;;0.40;0.40;;;;;;;-0.14;79.98;98741.53;4801243;29;20229;-80
2021/01/26 02:37:01;;;;;;;0.40;0.40;;;;;;;-0.15;79.70;98741.72;4803384;29;20241;-80
2021/01/26 02:40:14;;;;;;;0.40;0.40;;;;;;;-0.35;79.56;98715.00;4881340;29;20257;-80
2021/01/26 02:42:49;;;;;;;0.40;0.40;;;;;;;-0.19;79.81;98748.34;4905822;23;20319;-80
2021/01/26 02:45:56;;;;;;;0.40;0.40;;;;;;;-0.18;79.77;98756.03;4935058;29;20236;-80
2021/01/26 02:48:45;;;;;;;0.40;0.40;;;;;;;-0.20;79.36;98755.41;4935653;29;20213;-80
2021/01/26 02:51:33;;;;;;;0.40;0.40;;;;;;;-0.13;79.23;98761.63;4953596;23;20544;-80
2021/01/26 02:54:02;;;;;;;0.40;0.40;;;;;;;-0.16;78.90;98758.50;4913570;29;20224;-80
2021/01/26 02:56:37;;;;;;;0.50;0.50;;;;;;;-0.18;78.91;98769.19;4918020;29;20232;-80
2021/01/26 03:00:01;;;;;;;0.40;0.40;;;;;;;-0.22;78.53;98759.19;4955933;29;20283;-80
2021/01/26 03:02:48;;;;;;;0.40;0.40;;;;;;;-0.26;78.55;98769.25;4953466;23;20240;-80
2021/01/26 03:05:56;;;;;;;0.40;0.40;;;;;;;-0.22;78.53;98767.91;4974317;28;20259;-80
2021/01/26 03:08:33;;;;;;;0.40;0.40;;;;;;;-0.22;78.17;98772.34;4966117;29;20226;-80
2021/01/26 03:11:25;;;;;;;0.40;0.40;;;;;;;-0.38;78.19;98739.06;4959412;29;20230;-80
2021/01/26 03:14:12;;;;;;;0.40;0.40;;;;;;;-0.17;78.10;98770.03;4947669;23;20625;-80
2021/01/26 03:16:43;;;;;;;0.40;0.40;;;;;;;-0.26;77.54;98763.16;4875756;23;20239;-80
2021/01/26 03:19:30;;;;;;;0.40;0.40;;;;;;;-0.19;77.50;98764.97;4826143;29;20314;-80
2021/01/26 03:22:17;;;;;;;0.33;0.33;;;;;;;-0.17;77.49;98768.22;4826440;29;20204;-80
2021/01/26 03:24:55;;;;;;;0.40;0.40;;;;;;;-0.12;76.89;98772.97;4840322;29;20239;-80
2021/01/26 03:27:28;;;;;;;0.50;0.50;;;;;;;-0.28;76.50;98746.75;4857219;23;20235;-80
2021/01/26 03:29:59;;;;;;;0.40;0.40;;;;;;;-0.04;76.30;98773.75;4953717;29;20238;-80
2021/01/26 03:32:30;;;;;;;0.40;0.40;;;;;;;-0.18;75.59;98771.00;4938118;28;20295;-80
2021/01/26 03:35:08;;;;;;;0.40;0.40;;;;;;;-0.14;75.71;98773.13;4939081;23;20216;-80
2021/01/26 03:37:36;;;;;;;0.40;0.40;;;;;;;0.00;74.75;98775.03;4933112;29;20251;-80
2021/01/26 03:40:21;;;;;;;0.40;0.40;;;;;;;0.12;74.59;98782.56;4919507;29;20287;-80
2021/01/26 03:42:50;;;;;;;0.40;0.40;;;;;;;-0.01;74.10;98775.22;4950956;23;20236;-80
2021/01/26 03:45:17;;;;;;;0.37;0.37;;;;;;;0.01;73.74;98770.59;4918627;29;20264;-80
2021/01/26 03:47:56;;;;;;;0.40;0.40;;;;;;;0.08;72.83;98770.72;4918382;29;20224;-80
2021/01/26 03:51:00;;;;;;;0.40;0.40;;;;;;;0.12;72.78;98775.47;4950929;28;20310;-80
2021/01/26 03:53:35;;;;;;;0.50;0.50;;;;;;;0.15;73.38;98784.81;4926157;23;20232;-80
2021/01/26 03:56:18;;;;;;;0.40;0.40;;;;;;;0.21;73.08;98782.34;4918419;29;20234;-80
2021/01/26 03:59:16;;;;;;;0.40;0.40;;;;;;;0.18;72.90;98785.31;4940774;28;20301;-80
2021/01/26 04:01:53;;;;;;;0.40;0.40;;;;;;;0.15;72.97;98790.09;4967872;28;20230;-80
2021/01/26 04:05:05;;;;;;;0.40;0.40;;;;;;;0.15;73.65;98798.00;4938437;28;20232;-80
2021/01/26 04:07:56;;;;;;;0.40;0.40;;;;;;;0.12;73.10;98777.28;4845571;29;20245;-81
2021/01/26 04:10:27;;;;;;;0.40;0.40;;;;;;;0.11;73.49;98792.25;4780139;29;20329;-80
2021/01/26 04:12:57;;;;;;;0.50;0.50;;;;;;;0.15;73.43;98792.72;4839616;29;20253;-80
2021/01/26 04:15:33;;;;;;;0.40;0.40;;;;;;;0.11;72.63;98780.91;4836886;29;20230;-81
2021/01/26 04:17:59;;;;;;;0.30;0.30;;;;;;;0.12;72.34;98795.72;4824500;29;20234;-80
2021/01/26 04:20:34;;;;;;;0.40;0.40;;;;;;;0.17;72.59;98798.66;4822308;29;20634;-80
2021/01/26 04:23:01;;;;;;;0.40;0.40;;;;;;;0.11;72.51;98792.25;4837886;29;20241;-80
2021/01/26 04:25:30;;;;;;;0.40;0.40;;;;;;;0.10;72.71;98809.06;4781276;29;20238;-80
2021/01/26 04:27:57;;;;;;;0.50;0.50;;;;;;;-0.06;72.64;98796.00;4840955;29;20281;-80
2021/01/26 04:30:44;;;;;;;0.47;0.47;;;;;;;0.03;72.79;98812.56;4862844;23;20238;-80
2021/01/26 04:33:33;;;;;;;0.50;0.50;;;;;;;0.02;73.11;98816.19;4877326;23;20189;-80
2021/01/26 04:36:04;;;;;;;0.40;0.40;;;;;;;-0.01;73.59;98814.72;4941067;29;20232;-80
2021/01/26 04:38:56;;;;;;;0.40;0.40;;;;;;;-0.01;73.41;98820.81;4955741;29;20228;-79
2021/01/26 04:41:57;;;;;;;0.50;0.50;;;;;;;-0.01;73.95;98818.19;4946291;23;20218;-80
2021/01/26 04:44:47;;;;;;;0.40;0.40;;;;;;;-0.07;73.51;98813.59;4949052;29;20219;-79
2021/01/26 04:47:54;;;;;;;0.40;0.40;;;;;;;-0.16;73.70;98819.88;4972087;29;20215;-80
2021/01/26 04:50:53;;;;;;;0.50;0.50;;;;;;;-0.33;73.62;98822.75;4956780;29;20239;-80
2021/01/26 04:53:26;;;;;;;0.40;0.40;;;;;;;-0.38;74.07;98839.06;4952512;29;20220;-80
2021/01/26 04:56:09;;;;;;;0.40;0.40;;;;;;;-0.46;74.47;98832.00;4952213;29;20223;-80
2021/01/26 04:58:54;;;;;;;0.43;0.43;;;;;;;-0.52;74.67;98837.94;4971636;23;20270;-80
2021/01/26 05:01:58;;;;;;;0.40;0.40;;;;;;;-0.54;74.33;98842.53;4972878;28;20234;-80
2021/01/26 05:04:53;;;;;;;0.40;0.40;;;;;;;-0.47;74.64;98847.97;4976721;23;20579;-80
2021/01/26 05:07:29;;;;;;;0.47;0.47;;;;;;;-0.57;74.72;98821.84;4953147;29;20224;-80
2021/01/26 05:10:51;;;;;;;0.40;0.40;;;;;;;-0.49;74.38;98842.03;4951434;29;20243;-80
2021/01/26 05:13:44;;;;;;;0.40;0.40;;;;;;;-0.41;74.14;98857.81;4973803;29;20211;-80
2021/01/26 05:16:46;;;;;;;0.40;0.40;;;;;;;-0.58;74.75;98840.41;4973471;23;20230;-80
2021/01/26 05:20:14;;;;;;;0.40;0.40;;;;;;;-0.48;74.67;98859.47;4950074;29;20206;-80
2021/01/26 05:23:21;;;;;;;0.40;0.40;;;;;;;-0.53;74.32;98864.41;4941244;23;20228;-80
2021/01/26 05:26:12;;;;;;;0.40;0.40;;;;;;;-0.54;74.51;98854.88;4970394;23;20229;-80
2021/01/26 05:28:56;;;;;;;0.40;0.40;;;;;;;-0.58;74.65;98858.84;4982835;23;20228;-80
2021/01/26 05:31:33;;;;;;;0.40;0.40;;;;;;;-0.55;74.68;98871.66;4955538;28;20298;-80
2021/01/26 05:34:14;;;;;;;0.47;0.47;;;;;;;-0.53;74.99;98880.22;4953811;28;20694;-80
2021/01/26 05:36:47;;;;;;;0.50;0.50;;;;;;;-0.51;75.19;98873.78;4935226;29;20241;-79
2021/01/26 05:39:40;;;;;;;0.40;0.40;;;;;;;-0.63;75.07;98867.22;4951307;29;20724;-80
2021/01/26 05:42:18;;;;;;;0.50;0.50;;;;;;;-0.58;75.41;98888.59;4950429;28;20230;-80
2021/01/26 05:45:04;;;;;;;0.50;0.50;;;;;;;-0.57;75.34;98881.53;4940489;23;20242;-80
2021/01/26 05:47:41;;;;;;;0.40;0.40;;;;;;;-0.57;75.17;98887.63;4957287;23;20672;-79
2021/01/26 05:50:40;;;;;;;0.50;0.50;;;;;;;-0.47;74.85;98890.06;4946377;23;20239;-79
2021/01/26 05:53:29;;;;;;;0.40;0.40;;;;;;;-0.68;74.97;98864.28;4956919;29;20235;-80
2021/01/26 05:56:25;;;;;;;0.50;0.50;;;;;;;-0.51;74.96;98900.09;4946522;29;20196;-79
2021/01/26 05:58:52;;;;;;;0.50;0.50;;;;;;;-0.65;74.86;98890.25;4940511;29;20197;-79
2021/01/26 06:01:23;;;;;;;0.40;0.40;;;;;;;-0.45;74.80;98911.75;4936520;29;20188;-80
2021/01/26 06:04:37;;;;;;;0.40;0.40;;;;;;;-0.47;74.51;98909.28;4935919;29;20604;-79
2021/01/26 06:07:42;;;;;;;0.40;0.40;;;;;;;-0.49;74.56;98916.53;4937530;28;20240;-80
2021/01/26 06:10:21;;;;;;;0.43;0.43;;;;;;;-0.49;74.47;98920.97;4950090;23;20632;-80
2021/01/26 06:13:27;;;;;;;0.40;0.40;;;;;;;-0.57;73.97;98908.66;4962479;23;20255;-79
2021/01/26 06:16:25;;;;;;;0.40;0.40;;;;;;;-0.42;74.17;98915.88;4933637;29;20211;-80
2021/01/26 06:18:57;;;;;;;0.50;0.50;;;;;;;-0.49;74.06;98924.44;4962897;23;20236;-80
2021/01/26 06:21:55;;;;;;;0.40;0.40;;;;;;;-0.53;74.39;98928.41;4963052;23;20647;-81
2021/01/26 06:24:27;;;;;;;0.40;0.40;;;;;;;-0.44;74.07;98939.72;4940935;29;20231;-79
2021/01/26 06:27:21;;;;;;;0.40;0.40;;;;;;;-0.37;73.50;98942.53;4942638;23;20247;-79
2021/01/26 06:30:16;;;;;;;0.40;0.40;;;;;;;-0.38;73.28;98948.78;4937582;29;20236;-80
2021/01/26 06:32:58;;;;;;;0.40;0.40;;;;;;;-0.34;72.90;98950.09;4963099;23;20232;-80
2021/01/26 06:35:43;;;;;;;0.50;0.50;;;;;;;-0.43;72.67;98945.81;4937321;29;20270;-79
2021/01/26 06:38:22;;;;;;;0.40;0.40;;;;;;;-0.35;72.59;98965.06;4923492;28;20287;-79
2021/01/26 06:41:13;;;;;;;0.40;0.40;;;;;;;-0.35;72.74;98965.06;4942904;29;20223;-79
2021/01/26 06:44:11;;;;;;;0.50;0.50;;;;;;;-0.31;71.52;98963.72;4975547;29;20550;-79
2021/01/26 06:47:16;;;;;;;0.40;0.40;;;;;;;-0.30;71.66;98975.91;4978787;29;20203;-79
2021/01/26 06:50:50;;;;;;;0.50;0.50;;;;;;;-0.28;72.53;98979.19;4976115;29;20338;-80
2021/01/26 06:53:50;;;;;;;0.40;0.40;;;;;;;-0.25;72.36;98986.75;4976368;29;20227;-79
2021/01/26 06:57:12;;;;;;;0.50;0.50;;;;;;;-0.17;71.85;98981.47;4983203;23;20238;-80
2021/01/26 07:00:24;;;;;;;0.40;0.40;;;;;;;-0.28;72.28;98983.66;4939179;29;20235;-80
2021/01/26 07:03:19;;;;;;;0.40;0.40;;;;;;;-0.19;72.48;98993.19;4976989;28;20318;-79
2021/01/26 07:06:18;;;;;;;0.40;0.40;;;;;;;-0.23;72.47;99005.00;4971223;23;20328;-80
2021/01/26 07:09:30;;;;;;;0.40;0.40;;;;;;;-0.21;72.41;99019.66;4969677;23;20227;-80
2021/01/26 07:12:42;;;;;;;0.50;0.50;;;;;;;-0.18;72.07;99019.31;4961135;28;20237;-80
2021/01/26 07:16:03;;;;;;;0.50;0.50;;;;;;;-0.22;71.80;99018.00;4982728;23;20235;-80
2021/01/26 07:19:06;;;;;;;0.40;0.40;;;;;;;-0.18;72.35;99026.41;4932149;29;20243;-81
2021/01/26 07:21:51;;;;;;;0.50;0.50;;;;;;;-0.09;72.20;99026.22;4916429;29;20260;-80
2021/01/26 07:24:26;;;;;;;0.40;0.40;;;;;;;-0.12;71.79;99021.31;4949346;28;20690;-80
2021/01/26 07:27:27;;;;;;;0.40;0.40;;;;;;;-0.04;72.08;99037.09;4957709;23;20223;-81
2021/01/26 07:30:05;;;;;;;0.40;0.40;;;;;;;0.04;71.89;99033.63;4893035;23;20242;-80
2021/01/26 07:32:44;;;;;;;0.40;0.40;;;;;;;0.10;72.32;99034.75;4868606;29;20649;-80
2021/01/26 07:35:29;;;;;;;0.40;0.40;;;;;;;0.21;71.44;99042.31;4856602;29;20238;-82
2021/01/26 07:38:17;;;;;;;0.40;0.40;;;;;;;0.27;71.16;99039.84;4879166;28;20318;-81
2021/01/26 07:40:53;;;;;;;0.40;0.40;;;;;;;0.29;70.92;99029.94;4872840;28;20243;-83
2021/01/26 07:43:24;;;;;;;0.43;0.43;;;;;;;0.39;71.15;99043.75;4870590;28;20617;-81
2021/01/26 07:45:53;;;;;;;0.40;0.40;;;;;;;0.51;69.96;99038.97;4876202;28;20238;-81
2021/01/26 07:48:37;;;;;;;0.50;0.50;;;;;;;0.48;70.11;99046.34;4853131;28;20266;-80
2021/01/26 07:51:11;;;;;;;0.40;0.40;;;;;;;0.50;69.11;99049.66;4875132;29;20211;-81
2021/01/26 07:53:52;;;;;;;0.40;0.40;;;;;;;0.47;68.91;99045.53;4869522;29;20246;-81
2021/01/26 07:56:33;;;;;;;0.40;0.40;;;;;;;0.46;69.30;99053.63;4854316;29;20294;-81
2021/01/26 07:59:02;;;;;;;0.40;0.40;;;;;;;0.62;69.45;99058.84;4903986;23;20225;-80
2021/01/26 08:01:35;;;;;;;0.40;0.40;;;;;;;0.73;67.81;99061.13;4910005;29;20197;-81
2021/01/26 08:04:03;;;;;;;0.40;0.40;;;;;;;0.74;68.21;99053.03;4939948;28;20247;-80
2021/01/26 08:06:36;;;;;;;0.40;0.40;;;;;;;0.88;68.13;99070.78;4927595;29;20269;-81
2021/01/26 08:09:04;;;;;;;0.50;0.50;;;;;;;0.94;67.54;99076.34;4930171;29;20220;-80
2021/01/26 08:11:31;;;;;;;0.40;0.40;;;;;;;0.92;67.55;99084.44;4944975;23;20252;-80
2021/01/26 08:14:04;;;;;;;0.40;0.40;;;;;;;0.94;67.73;99085.06;4937554;23;20229;-80
2021/01/26 08:16:36;;;;;;;0.40;0.40;;;;;;;0.95;67.35;99088.53;4906026;29;20727;-80
2021/01/26 08:19:05;;;;;;;0.40;0.40;;;;;;;1.03;66.85;99080.59;4934618;23;20271;-81
2021/01/26 08:21:51;;;;;;;0.40;0.40;;;;;;;1.08;66.17;99075.63;4913805;23;20446;-81
2021/01/26 08:24:25;;;;;;;0.40;0.40;;;;;;;1.16;66.20;99081.69;4897447;23;20236;-80
2021/01/26 08:26:55;;;;;;;0.40;0.40;;;;;;;1.20;65.70;99080.34;4868199;23;20218;-80
2021/01/26 08:29:39;;;;;;;0.40;0.40;;;;;;;1.37;64.61;99081.06;4849663;29;20221;-80
2021/01/26 08:32:24;;;;;;;0.47;0.47;;;;;;;1.38;64.31;99084.53;4865969;28;20211;-81
2021/01/26 08:35:02;;;;;;;0.40;0.40;;;;;;;1.44;63.89;99083.84;4827006;29;20231;-81
2021/01/26 08:37:41;;;;;;;0.40;0.40;;;;;;;1.53;62.66;99086.25;4831589;29;20227;-80
2021/01/26 08:40:31;;;;;;;0.40;0.40;;;;;;;1.67;60.74;99097.88;4834091;29;20231;-80
2021/01/26 08:43:02;;;;;;;0.40;0.40;;;;;;;1.66;59.51;99096.25;4834066;29;20302;-81
2021/01/26 08:45:36;;;;;;;0.40;0.40;;;;;;;1.58;58.87;99104.22;4836555;29;20267;-81
2021/01/26 08:48:26;;;;;;;0.40;0.40;;;;;;;1.66;59.28;99104.16;4928470;23;20287;-81
2021/01/26 08:50:56;;;;;;;0.40;0.40;;;;;;;1.81;57.45;99102.41;4954091;28;20216;-80
2021/01/26 08:53:28;;;;;;;0.40;0.40;;;;;;;1.92;56.30;99096.69;4948009;29;20282;-81
2021/01/26 08:56:14;;;;;;;0.40;0.40;;;;;;;2.00;56.78;99098.47;4920419;23;20395;-81
2021/01/26 08:58:49;;;;;;;0.40;0.40;;;;;;;2.09;55.86;99102.69;4890577;29;20616;-80
2021/01/26 09:01:34;;;;;;;0.40;0.40;;;;;;;2.16;55.74;99099.13;4928788;23;20237;-81
2021/01/26 09:04:12;;;;;;;0.40;0.40;;;;;;;2.26;55.78;99108.63;4964649;28;20238;-81
2021/01/26 09:06:39;;;;;;;0.40;0.40;;;;;;;2.26;56.15;99108.63;4965434;28;20295;-81
2021/01/26 09:09:07;;;;;;;0.40;0.40;;;;;;;2.14;56.20;99085.31;4909603;28;20215;-81
2021/01/26 09:11:45;;;;;;;0.40;0.40;;;;;;;2.34;55.11;99108.56;4903428;23;20232;-80
2021/01/26 09:14:25;;;;;;;0.40;0.40;;;;;;;2.37;55.23;99121.44;4943050;28;20222;-81
2021/01/26 09:17:26;;;;;;;0.40;0.40;;;;;;;2.26;55.59;99106.81;4931581;29;20259;-81
2021/01/26 09:19:56;;;;;;;0.40;0.40;;;;;;;2.32;56.22;99097.34;4913712;29;20240;-81
2021/01/26 09:22:28;;;;;;;0.40;0.40;;;;;;;2.32;57.41;99115.84;4939304;29;20228;-81
2021/01/26 09:24:59;;;;;;;0.40;0.40;;;;;;;2.24;57.04;99106.16;4951253;23;20269;-81
2021/01/26 09:27:30;;;;;;;0.40;0.40;;;;;;;2.32;57.42;99116.69;4907582;29;20746;-81
2021/01/26 09:30:22;;;;;;;0.40;0.40;;;;;;;2.24;58.23;99111.44;4923737;29;20237;-81
2021/01/26 09:32:57;;;;;;;0.40;0.40;;;;;;;2.30;58.08;99113.38;4909194;29;20534;-81
2021/01/26 09:35:36;;;;;;;0.47;0.47;;;;;;;2.37;58.77;99124.06;4911414;29;20264;-81
2021/01/26 09:38:30;;;;;;;0.40;0.40;;;;;;;2.46;58.40;99125.63;4909703;29;20901;-80
2021/01/26 09:41:07;;;;;;;0.40;0.40;;;;;;;2.48;58.77;99092.72;4883001;29;20266;-81
2021/01/26 09:43:37;;;;;;;0.40;0.40;;;;;;;2.61;58.95;99110.63;4907515;29;20237;-81
2021/01/26 09:46:32;;;;;;;0.40;0.40;;;;;;;2.53;58.22;99100.09;4893654;29;20221;-81
2021/01/26 09:49:25;;;;;;;0.37;0.37;;;;;;;2.62;58.13;99114.88;4950578;23;20243;-81
2021/01/26 09:52:01;;;;;;;0.40;0.40;;;;;;;2.65;58.83;99110.06;4927654;29;20246;-80
2021/01/26 09:54:32;;;;;;;0.40;0.40;;;;;;;2.69;58.30;99107.88;4936685;29;20548;-81
2021/01/26 09:57:00;;;;;;;0.40;0.40;;;;;;;2.67;58.98;99100.13;4925063;23;20239;-81
2021/01/26 09:59:31;;;;;;;0.40;0.40;;;;;;;2.92;58.50;99113.91;4941113;29;20551;-81
2021/01/26 10:02:00;;;;;;;0.40;0.40;;;;;;;2.85;57.00;99098.94;4924093;23;20231;-81
2021/01/26 10:04:27;;;;;;;0.40;0.40;;;;;;;2.75;56.16;99093.13;4930168;29;20243;-81
2021/01/26 10:07:04;;;;;;;0.40;0.40;;;;;;;2.79;55.67;99099.69;4928645;29;20240;-81
2021/01/26 10:09:35;;;;;;;0.40;0.40;;;;;;;2.82;56.09;99105.41;4929866;29;20254;-81
2021/01/26 10:12:16;;;;;;;0.40;0.40;;;;;;;2.82;56.13;99113.34;4948676;28;20223;-81
2021/01/26 10:15:20;;;;;;;0.40;0.40;;;;;;;2.94;56.12;99109.22;4942984;28;20236;-81
2021/01/26 10:17:58;;;;;;;0.40;0.40;;;;;;;2.98;56.12;99117.66;4942347;29;20224;-81
2021/01/26 10:20:35;;;;;;;0.40;0.40;;;;;;;3.03;56.67;99099.41;4940792;28;20236;-81
2021/01/26 10:23:12;;;;;;;0.40;0.40;;;;;;;3.25;55.08;99093.16;4912292;29;20239;-81
2021/01/26 10:25:43;;;;;;;0.40;0.40;;;;;;;3.35;54.33;99087.56;4938976;28;20283;-80
2021/01/26 10:28:25;;;;;;;0.40;0.40;;;;;;;3.62;53.51;99097.44;4939577;23;20275;-82
2021/01/26 10:30:54;;;;;;;0.40;0.40;;;;;;;3.89;52.26;99096.69;4925847;29;20238;-81
2021/01/26 10:33:32;;;;;;;0.50;0.50;;;;;;;3.98;51.91;99090.25;4915418;23;20235;-81
2021/01/26 10:36:25;;;;;;;0.40;0.40;;;;;;;4.20;52.01;99092.88;4926016;29;20234;-81
2021/01/26 10:38:52;;;;;;;0.40;0.40;;;;;;;4.31;52.06;99101.13;4914992;29;20242;-80
2021/01/26 10:41:28;;;;;;;0.40;0.40;;;;;;;4.24;51.05;99078.22;4938703;23;20227;-82
2021/01/26 10:44:05;;;;;;;0.40;0.40;;;;;;;4.33;51.42;99087.69;4928918;29;20297;-81
2021/01/26 10:46:38;;;;;;;0.40;0.40;;;;;;;4.33;51.75;99106.25;4930998;29;20293;-81
2021/01/26 10:49:23;;;;;;;0.40;0.40;;;;;;;4.28;51.83;99080.31;4950385;28;20219;-81
2021/01/26 10:51:49;;;;;;;0.40;0.40;;;;;;;4.06;51.91;99052.16;4937057;23;20263;-81
2021/01/26 10:54:16;;;;;;;0.40;0.40;;;;;;;4.23;51.98;99080.06;4920096;23;20316;-81
2021/01/26 10:57:00;;;;;;;0.40;0.40;;;;;;;4.21;52.26;99082.06;4934729;29;20239;-81
2021/01/26 10:59:26;;;;;;;0.40;0.40;;;;;;;4.13;52.13;99068.13;4945130;29;20246;-81
2021/01/26 11:01:53;;;;;;;0.50;0.50;;;;;;;4.17;52.47;99069.38;4906630;29;20323;-82
2021/01/26 11:04:20;;;;;;;0.40;0.40;;;;;;;4.18;52.22;99073.69;4910011;29;20257;-81
2021/01/26 11:06:47;;;;;;;0.40;0.40;;;;;;;4.17;51.74;99090.59;4909059;29;20245;-81
2021/01/26 11:09:14;;;;;;;0.30;0.30;;;;;;;4.26;51.80;99077.00;4908087;29;20233;-81
2021/01/26 11:11:44;;;;;;;0.40;0.40;;;;;;;4.34;52.57;99084.00;4919075;29;20667;-81
2021/01/26 11:14:14;;;;;;;0.30;0.30;;;;;;;4.52;51.23;99088.84;4932321;28;20240;-81
2021/01/26 11:16:40;;;;;;;0.40;0.40;;;;;;;4.71;49.21;99074.88;4933561;29;20240;-81
2021/01/26 11:19:11;;;;;;;0.40;0.40;;;;;;;4.63;49.52;99073.19;4915928;29;20259;-81
2021/01/26 11:21:37;;;;;;;0.40;0.40;;;;;;;4.60;49.93;99070.94;4944555;29;20180;-81
2021/01/26 11:24:04;;;;;;;0.30;0.30;;;;;;;4.71;49.72;99088.16;4921357;29;20251;-82
2021/01/26 11:26:30;;;;;;;0.40;0.40;;;;;;;4.46;50.32;99055.94;4937436;29;20263;-81
2021/01/26 11:28:58;;;;;;;0.40;0.40;;;;;;;4.56;50.57;99071.50;4953365;29;20330;-81
2021/01/26 11:31:26;;;;;;;0.40;0.40;;;;;;;4.49;50.66;99057.38;4939308;29;20236;-81
2021/01/26 11:33:54;;;;;;;0.40;0.40;;;;;;;4.66;50.41;99066.69;4953687;29;20243;-80
2021/01/26 11:36:20;;;;;;;0.40;0.40;;;;;;;4.56;50.25;99058.25;4964925;23;20238;-82
2021/01/26 11:38:46;;;;;;;0.30;0.30;;;;;;;4.63;49.57;99038.69;4921320;29;20569;-81
2021/01/26 11:41:18;;;;;;;0.40;0.40;;;;;;;4.73;49.80;99047.13;4929539;23;20237;-81
2021/01/26 11:43:58;;;;;;;0.40;0.40;;;;;;;4.63;49.57;99036.03;4932925;29;20223;-81
2021/01/26 11:46:25;;;;;;;0.40;0.40;;;;;;;4.65;49.45;99031.38;4927899;28;20242;-81
2021/01/26 11:48:52;;;;;;;0.40;0.40;;;;;;;4.64;50.03;99018.28;4913453;29;20609;-81
2021/01/26 11:51:25;;;;;;;0.40;0.40;;;;;;;4.65;49.44;99010.13;4931884;29;20239;-81
2021/01/26 11:54:00;;;;;;;0.40;0.40;;;;;;;4.57;49.46;99009.47;4913486;23;20240;-82
2021/01/26 11:56:27;;;;;;;0.40;0.40;;;;;;;4.68;50.06;99016.88;4900199;29;20250;-81
2021/01/26 11:58:54;;;;;;;0.40;0.40;;;;;;;4.69;49.89;99003.41;4877057;29;20244;-81
2021/01/26 12:01:20;;;;;;;0.40;0.40;;;;;;;4.58;49.71;98976.59;4900091;29;20224;-81
2021/01/26 12:03:47;;;;;;;0.40;0.40;;;;;;;4.66;49.83;98979.94;4861292;29;20273;-81
2021/01/26 12:06:14;;;;;;;0.40;0.40;;;;;;;4.88;50.00;98991.25;4887399;29;20595;-81
2021/01/26 12:08:42;;;;;;;0.40;0.40;;;;;;;5.03;48.85;98993.75;4878563;29;20243;-81
2021/01/26 12:11:24;;;;;;;0.30;0.30;;;;;;;5.11;48.18;98997.03;4879005;29;20251;-81
2021/01/26 12:13:50;;;;;;;0.40;0.40;;;;;;;5.10;48.33;98997.22;4877640;29;20225;-81
2021/01/26 12:16:16;;;;;;;0.40;0.40;;;;;;;5.06;48.60;99006.63;4878108;29;20239;-81
2021/01/26 12:18:43;;;;;;;0.40;0.40;;;;;;;4.89;49.08;98961.03;4896919;29;20679;-81
2021/01/26 12:21:11;;;;;;;0.50;0.50;;;;;;;4.92;48.09;98975.72;4879895;23;20246;-81
2021/01/26 12:23:39;;;;;;;0.30;0.30;;;;;;;4.99;48.64;98982.72;4852796;29;20234;-81
2021/01/26 12:26:07;;;;;;;0.40;0.40;;;;;;;5.03;47.65;98975.16;4855449;28;20249;-81
2021/01/26 12:28:34;;;;;;;0.40;0.40;;;;;;;5.19;47.74;98980.91;4900036;23;20220;-81
2021/01/26 12:31:00;;;;;;;0.40;0.40;;;;;;;5.16;47.65;98972.53;4878255;29;20247;-81
2021/01/26 12:33:27;;;;;;;0.40;0.40;;;;;;;5.41;47.11;98986.09;4909476;29;20267;-81
2021/01/26 12:35:54;;;;;;;0.40;0.40;;;;;;;5.49;47.27;98988.53;4879808;29;20324;-82
2021/01/26 12:38:37;;;;;;;0.40;0.40;;;;;;;5.44;46.85;98975.88;4862199;29;20313;-81